createdAt,value
2019-05-01T00:01:11.891Z,100.0000
2019-05-01T00:03:16.185Z,100.0000
2019-05-01T00:05:19.946Z,100.0000
2019-05-01T00:07:24.011Z,100.0000
2019-05-01T00:09:27.770Z,100.0000
2019-05-01T00:11:31.732Z,100.0000
2019-05-01T00:13:35.401Z,100.0000
2019-05-01T00:15:38.825Z,100.0000
2019-05-01T00:17:42.539Z,100.0000
2019-05-01T00:19:46.087Z,100.0000
2019-05-01T00:21:50.015Z,100.0000
2019-05-01T00:23:53.753Z,100.0000
2019-05-01T00:25:57.825Z,100.0000
2019-05-01T00:28:01.809Z,100.0000
2019-05-01T00:30:05.257Z,100.0000
2019-05-01T00:32:08.957Z,100.0000
2019-05-01T00:34:12.617Z,100.0000
2019-05-01T00:36:16.296Z,100.0000
2019-05-01T00:38:20.025Z,100.0000
2019-05-01T00:40:23.664Z,100.0000
2019-05-01T00:42:27.711Z,100.0000
2019-05-01T00:44:31.426Z,100.0000
2019-05-01T00:46:35.091Z,100.0000
2019-05-01T00:48:38.170Z,100.0000
2019-05-01T00:50:41.437Z,100.0000
2019-05-01T00:52:45.959Z,100.0000
2019-05-01T00:54:49.567Z,100.0000
2019-05-01T00:56:53.454Z,100.0000
2019-05-01T00:58:57.052Z,100.0000
2019-05-01T01:01:00.686Z,100.0000
2019-05-01T01:03:04.097Z,100.0000
2019-05-01T01:05:07.618Z,100.0000
2019-05-01T01:07:11.086Z,100.0000
2019-05-01T01:09:14.959Z,100.0000
2019-05-01T01:11:18.693Z,100.0000
2019-05-01T01:13:23.095Z,100.0000
2019-05-01T01:15:26.732Z,100.0000
2019-05-01T01:17:30.404Z,100.0000
2019-05-01T01:19:33.955Z,100.0000
2019-05-01T01:21:37.999Z,100.0000
2019-05-01T01:23:41.911Z,100.0000
2019-05-01T01:25:45.517Z,100.0000
2019-05-01T01:27:49.280Z,100.0000
2019-05-01T01:29:53.462Z,100.0000
2019-05-01T01:31:58.044Z,100.0000
2019-05-01T01:34:02.238Z,100.0000
2019-05-01T01:36:05.900Z,100.0000
2019-05-01T01:38:09.320Z,100.0000
2019-05-01T01:40:13.687Z,100.0000
2019-05-01T01:42:17.381Z,100.0000
2019-05-01T01:44:21.012Z,100.0000
2019-05-01T01:46:24.483Z,100.0000
2019-05-01T01:48:28.267Z,100.0000
2019-05-01T01:50:32.064Z,100.0000
2019-05-01T01:52:34.709Z,100.0000
2019-05-01T01:54:38.423Z,100.0000
2019-05-01T01:56:42.595Z,100.0000
2019-05-01T01:58:46.375Z,100.0000
2019-05-01T02:00:50.532Z,100.0000
2019-05-01T02:02:54.232Z,100.0000
2019-05-01T02:04:58.098Z,100.0000
2019-05-01T02:07:02.478Z,100.0000
2019-05-01T02:09:06.201Z,100.0000
2019-05-01T02:11:10.183Z,100.0000
2019-05-01T02:13:13.562Z,100.0000
2019-05-01T02:15:17.218Z,100.0000
2019-05-01T02:17:20.900Z,100.0000
2019-05-01T02:19:24.385Z,100.0000
2019-05-01T02:21:28.089Z,100.0000
2019-05-01T02:23:31.971Z,100.0000
2019-05-01T02:25:35.708Z,100.0000
2019-05-01T02:27:39.436Z,100.0000
2019-05-01T02:29:43.292Z,100.0000
2019-05-01T02:31:47.139Z,100.0000
2019-05-01T02:33:51.007Z,100.0000
2019-05-01T02:35:54.738Z,100.0000
2019-05-01T02:37:58.714Z,100.0000
2019-05-01T02:40:02.619Z,100.0000
2019-05-01T02:42:06.721Z,100.0000
2019-05-01T02:44:10.574Z,100.0000
2019-05-01T02:46:14.242Z,100.0000
2019-05-01T02:48:18.327Z,100.0000
2019-05-01T02:50:22.286Z,100.0000
2019-05-01T02:52:26.325Z,100.0000
2019-05-01T02:54:30.279Z,100.0000
2019-05-01T02:56:34.093Z,100.0000
2019-05-01T02:58:37.660Z,100.0000
2019-05-01T03:00:40.620Z,100.0000
2019-05-01T03:02:45.001Z,100.0000
2019-05-01T03:04:49.118Z,100.0000
2019-05-01T03:06:52.896Z,100.0000
2019-05-01T03:08:57.800Z,100.0000
2019-05-01T03:11:01.452Z,100.0000
2019-05-01T03:13:05.211Z,100.0000
2019-05-01T03:15:08.661Z,100.0000
2019-05-01T03:17:12.189Z,100.0000
2019-05-01T03:19:15.630Z,100.0000
2019-05-01T03:21:19.365Z,100.0000
2019-05-01T03:23:23.220Z,100.0000
2019-05-01T03:25:26.834Z,100.0000
2019-05-01T03:27:30.492Z,100.0000
2019-05-01T03:29:34.103Z,100.0000
2019-05-01T03:31:37.943Z,100.0000
2019-05-01T03:33:41.820Z,100.0000
2019-05-01T03:35:45.243Z,100.0000
2019-05-01T03:37:49.125Z,100.0000
2019-05-01T03:39:52.906Z,100.0000
2019-05-01T03:41:56.768Z,100.0000
2019-05-01T03:44:00.235Z,100.0000
2019-05-01T03:46:04.001Z,100.0000
2019-05-01T03:48:07.676Z,100.0000
2019-05-01T03:50:11.650Z,100.0000
2019-05-01T03:52:15.441Z,100.0000
2019-05-01T03:54:19.165Z,100.0000
2019-05-01T03:56:23.233Z,100.0000
2019-05-01T03:58:27.030Z,100.0000
2019-05-01T04:00:30.227Z,100.0000
2019-05-01T04:02:34.636Z,100.0000
2019-05-01T04:04:38.591Z,100.0000
2019-05-01T04:06:42.485Z,100.0000
2019-05-01T04:08:46.404Z,100.0000
2019-05-01T04:10:50.275Z,100.0000
2019-05-01T04:12:53.197Z,100.0000
2019-05-01T04:14:56.027Z,100.0000
2019-05-01T04:16:59.960Z,100.0000
2019-05-01T04:19:03.637Z,100.0000
2019-05-01T04:21:07.662Z,100.0000
2019-05-01T04:23:11.693Z,100.0000
2019-05-01T04:25:15.725Z,100.0000
2019-05-01T04:27:19.160Z,100.0000
2019-05-01T04:29:22.848Z,100.0000
2019-05-01T04:31:26.534Z,100.0000
2019-05-01T04:33:30.433Z,100.0000
2019-05-01T04:35:34.196Z,100.0000
2019-05-01T04:37:38.385Z,100.0000
2019-05-01T04:39:42.280Z,100.0000
2019-05-01T04:41:46.103Z,100.0000
2019-05-01T04:43:49.814Z,100.0000
2019-05-01T04:45:53.284Z,100.0000
2019-05-01T04:47:57.387Z,100.0000
2019-05-01T04:50:01.121Z,100.0000
2019-05-01T04:52:04.528Z,100.0000
2019-05-01T04:54:08.204Z,100.0000
2019-05-01T04:56:12.124Z,100.0000
2019-05-01T04:58:15.910Z,100.0000
2019-05-01T05:00:20.182Z,100.0000
2019-05-01T05:02:23.868Z,100.0000
2019-05-01T05:04:28.207Z,100.0000
2019-05-01T05:06:32.071Z,100.0000
2019-05-01T05:08:35.827Z,100.0000
2019-05-01T05:10:39.691Z,100.0000
2019-05-01T05:12:43.553Z,100.0000
2019-05-01T05:14:48.340Z,100.0000
2019-05-01T05:16:52.300Z,100.0000
2019-05-01T05:18:56.160Z,100.0000
2019-05-01T05:21:00.304Z,100.0000
2019-05-01T05:23:04.069Z,100.0000
2019-05-01T05:25:08.153Z,100.0000
2019-05-01T05:27:11.392Z,100.0000
2019-05-01T05:29:15.182Z,100.0000
2019-05-01T05:31:19.036Z,100.0000
2019-05-01T05:33:22.865Z,100.0000
2019-05-01T05:35:26.051Z,100.0000
2019-05-01T05:37:30.098Z,100.0000
2019-05-01T05:39:33.892Z,100.0000
2019-05-01T05:41:37.935Z,100.0000
2019-05-01T05:43:41.741Z,100.0000
2019-05-01T05:45:45.568Z,100.0000
2019-05-01T05:47:49.559Z,100.0000
2019-05-01T05:49:53.361Z,100.0000
2019-05-01T05:51:57.318Z,100.0000
2019-05-01T05:54:01.193Z,100.0000
2019-05-01T05:56:05.104Z,100.0000
2019-05-01T05:58:09.283Z,100.0000
2019-05-01T06:00:12.251Z,100.0000
2019-05-01T06:02:16.504Z,100.0000
2019-05-01T06:04:20.807Z,100.0000
2019-05-01T06:06:25.312Z,100.0000
2019-05-01T06:08:29.508Z,100.0000
2019-05-01T06:10:33.796Z,100.0000
2019-05-01T06:12:37.275Z,100.0000
2019-05-01T06:14:41.234Z,100.0000
2019-05-01T06:16:46.889Z,100.0000
2019-05-01T06:18:53.787Z,100.0000
2019-05-01T06:21:02.272Z,100.0000
2019-05-01T06:23:07.155Z,100.0000
2019-05-01T06:25:21.243Z,100.0000
2019-05-01T06:27:20.630Z,100.0000
2019-05-01T06:29:24.990Z,100.0000
2019-05-01T06:31:29.412Z,100.0000
2019-05-01T06:33:43.833Z,100.0000
2019-05-01T06:35:42.857Z,100.0000
2019-05-01T06:37:47.283Z,100.0000
2019-05-01T06:39:51.678Z,100.0000
2019-05-01T06:41:55.869Z,100.0000
2019-05-01T06:44:02.189Z,100.0000
2019-05-01T06:46:08.042Z,100.0000
2019-05-01T06:48:14.199Z,100.0000
2019-05-01T06:50:21.800Z,100.0000
2019-05-01T06:52:29.396Z,100.0000
2019-05-01T06:54:35.169Z,100.0000
2019-05-01T06:56:39.518Z,100.0000
2019-05-01T06:58:43.916Z,100.0000
2019-05-01T07:00:48.498Z,100.0000
2019-05-01T07:02:52.761Z,100.0000
2019-05-01T07:04:57.175Z,100.0000
2019-05-01T07:07:02.010Z,100.0000
2019-05-01T07:09:06.966Z,100.0000
2019-05-01T07:11:16.628Z,100.0000
2019-05-01T07:13:21.059Z,100.0000
2019-05-01T07:15:26.847Z,100.0000
2019-05-01T07:17:33.341Z,100.0000
2019-05-01T07:19:40.350Z,100.0000
2019-05-01T07:21:44.831Z,100.0000
2019-05-01T07:23:52.203Z,100.0000
2019-05-01T07:25:57.555Z,100.0000
2019-05-01T07:28:01.900Z,100.0000
2019-05-01T07:30:06.271Z,100.0000
2019-05-01T07:32:16.408Z,100.0000
2019-05-01T07:34:21.767Z,100.0000
2019-05-01T07:36:30.057Z,100.0000
2019-05-01T07:38:38.192Z,100.0000
2019-05-01T07:40:43.350Z,100.0000
2019-05-01T07:42:48.193Z,100.0000
2019-05-01T07:44:52.739Z,100.0000
2019-05-01T07:46:57.021Z,100.0000
2019-05-01T07:49:01.284Z,100.0000
2019-05-01T07:51:07.115Z,100.0000
2019-05-01T07:53:13.282Z,100.0000
2019-05-01T07:55:18.257Z,100.0000
2019-05-01T07:57:23.108Z,100.0000
2019-05-01T07:59:28.762Z,100.0000
2019-05-01T08:01:33.145Z,100.0000
2019-05-01T08:03:38.001Z,100.0000
2019-05-01T08:05:46.832Z,100.0000
2019-05-01T08:07:51.269Z,100.0000
2019-05-01T08:09:54.713Z,100.0000
2019-05-01T08:11:59.024Z,100.0000
2019-05-01T08:14:07.518Z,100.0000
2019-05-01T08:16:10.892Z,100.0000
2019-05-01T08:18:15.557Z,100.0000
2019-05-01T08:20:20.256Z,100.0000
2019-05-01T08:22:24.391Z,100.0000
2019-05-01T08:24:28.685Z,100.0000
2019-05-01T08:26:33.568Z,100.0000
2019-05-01T08:28:37.838Z,100.0000
2019-05-01T08:30:42.204Z,100.0000
2019-05-01T08:32:45.702Z,100.0000
2019-05-01T08:34:49.961Z,99.8993
2019-05-01T08:36:54.262Z,99.4079
2019-05-01T08:38:58.636Z,98.0072
2019-05-01T08:41:02.698Z,97.0871
2019-05-01T08:43:07.181Z,97.9431
2019-05-01T08:45:11.576Z,95.8144
2019-05-01T08:47:15.956Z,94.6609
2019-05-01T08:49:20.265Z,90.9438
2019-05-01T08:51:24.605Z,89.3111
2019-05-01T08:53:28.224Z,86.2058
2019-05-01T08:55:32.635Z,87.2267
2019-05-01T08:57:39.195Z,85.6931
2019-05-01T08:59:44.888Z,86.6972
2019-05-01T09:01:50.569Z,84.0055
2019-05-01T09:03:58.528Z,82.3468
2019-05-01T09:06:02.042Z,79.5682
2019-05-01T09:08:05.376Z,80.0671
2019-05-01T09:10:09.361Z,82.8779
2019-05-01T09:12:13.609Z,82.4567
2019-05-01T09:14:18.166Z,80.9186
2019-05-01T09:16:23.350Z,81.7105
2019-05-01T09:18:32.076Z,79.3530
2019-05-01T09:20:36.410Z,76.1212
2019-05-01T09:22:40.870Z,73.7209
2019-05-01T09:24:45.528Z,73.1670
2019-05-01T09:26:51.437Z,76.8444
2019-05-01T09:28:55.616Z,79.2172
2019-05-01T09:31:02.097Z,73.3516
2019-05-01T09:33:08.047Z,75.7137
2019-05-01T09:35:16.046Z,73.0495
2019-05-01T09:37:20.702Z,71.4336
2019-05-01T09:39:25.061Z,75.0332
2019-05-01T09:41:37.942Z,75.7107
2019-05-01T09:43:38.608Z,74.9935
2019-05-01T09:45:42.661Z,68.6137
2019-05-01T09:47:46.346Z,73.7911
2019-05-01T09:49:54.078Z,73.1868
2019-05-01T09:51:58.261Z,75.8846
2019-05-01T09:54:05.573Z,70.8064
2019-05-01T09:56:11.342Z,68.6076
2019-05-01T09:58:15.073Z,71.3222
2019-05-01T10:00:19.529Z,71.4839
2019-05-01T10:02:23.644Z,68.5573
2019-05-01T10:04:30.195Z,67.6204
2019-05-01T10:06:36.833Z,65.2384
2019-05-01T10:08:41.902Z,66.3279
2019-05-01T10:10:46.452Z,62.0676
2019-05-01T10:12:51.126Z,66.2455
2019-05-01T10:14:55.520Z,56.8673
2019-05-01T10:16:59.229Z,65.5879
2019-05-01T10:19:03.315Z,61.7868
2019-05-01T10:21:07.864Z,60.5982
2019-05-01T10:23:13.170Z,57.2519
2019-05-01T10:25:19.138Z,59.7742
2019-05-01T10:27:23.616Z,62.1775
2019-05-01T10:29:27.959Z,59.3713
2019-05-01T10:31:32.427Z,59.7818
2019-05-01T10:33:36.567Z,56.0922
2019-05-01T10:35:42.727Z,57.8790
2019-05-01T10:37:47.297Z,59.1318
2019-05-01T10:39:54.015Z,58.8296
2019-05-01T10:42:00.024Z,58.4039
2019-05-01T10:44:04.986Z,55.7412
2019-05-01T10:46:09.301Z,59.8611
2019-05-01T10:48:13.748Z,52.8695
2019-05-01T10:50:18.405Z,51.6121
2019-05-01T10:52:22.717Z,55.9289
2019-05-01T10:54:27.264Z,60.4974
2019-05-01T10:56:31.335Z,51.8441
2019-05-01T10:58:35.622Z,56.6339
2019-05-01T11:00:39.955Z,53.9742
2019-05-01T11:02:44.355Z,54.7005
2019-05-01T11:04:49.133Z,60.1160
2019-05-01T11:06:53.429Z,54.7158
2019-05-01T11:08:57.724Z,56.8536
2019-05-01T11:11:02.147Z,63.9979
2019-05-01T11:13:07.811Z,54.8470
2019-05-01T11:15:11.741Z,54.9035
2019-05-01T11:17:14.765Z,56.5057
2019-05-01T11:19:18.348Z,52.9427
2019-05-01T11:21:22.792Z,60.9216
2019-05-01T11:23:26.889Z,55.3246
2019-05-01T11:25:31.219Z,54.0566
2019-05-01T11:27:35.000Z,56.5332
2019-05-01T11:29:38.912Z,56.3272
2019-05-01T11:31:43.372Z,55.1263
2019-05-01T11:33:47.405Z,52.6452
2019-05-01T11:35:51.509Z,50.2388
2019-05-01T11:37:55.117Z,52.2805
2019-05-01T11:39:58.545Z,48.5069
2019-05-01T11:42:02.203Z,51.8318
2019-05-01T11:44:05.671Z,54.3801
2019-05-01T11:46:09.941Z,53.0434
2019-05-01T11:48:13.873Z,54.8760
2019-05-01T11:50:17.608Z,53.9635
2019-05-01T11:52:21.736Z,48.8548
2019-05-01T11:54:25.354Z,45.0919
2019-05-01T11:56:29.385Z,51.1177
2019-05-01T11:58:33.326Z,56.4584
2019-05-01T12:00:37.177Z,55.2132
2019-05-01T12:02:41.177Z,50.6081
2019-05-01T12:04:44.620Z,53.1487
2019-05-01T12:06:48.173Z,49.0623
2019-05-01T12:08:51.870Z,51.9646
2019-05-01T12:10:55.700Z,49.9321
2019-05-01T12:12:59.669Z,53.6431
2019-05-01T12:15:03.108Z,52.5093
2019-05-01T12:17:06.844Z,54.1009
2019-05-01T12:19:10.366Z,42.7314
2019-05-01T12:21:14.169Z,45.1301
2019-05-01T12:23:17.994Z,49.1432
2019-05-01T12:25:21.738Z,47.0985
2019-05-01T12:27:25.635Z,48.1361
2019-05-01T12:29:29.215Z,48.8975
2019-05-01T12:31:33.367Z,52.1050
2019-05-01T12:33:36.575Z,48.0003
2019-05-01T12:35:40.359Z,52.4865
2019-05-01T12:37:44.038Z,50.0923
2019-05-01T12:39:48.439Z,50.2525
2019-05-01T12:41:52.627Z,46.8238
2019-05-01T12:43:56.623Z,48.8975
2019-05-01T12:46:00.295Z,50.3807
2019-05-01T12:48:03.730Z,48.5863
2019-05-01T12:50:07.452Z,49.1859
2019-05-01T12:52:11.129Z,47.5013
2019-05-01T12:54:15.102Z,51.0674
2019-05-01T12:56:18.805Z,45.1698
2019-05-01T12:58:23.027Z,47.2480
2019-05-01T13:00:27.266Z,46.4469
2019-05-01T13:02:30.973Z,46.7170
2019-05-01T13:04:35.164Z,46.3233
2019-05-01T13:06:48.919Z,48.5542
2019-05-01T13:08:47.734Z,48.5435
2019-05-01T13:10:51.461Z,43.2303
2019-05-01T13:12:55.081Z,45.4185
2019-05-01T13:14:58.888Z,43.6698
2019-05-01T13:17:02.724Z,40.2487
2019-05-01T13:19:06.725Z,45.7389
2019-05-01T13:21:10.521Z,43.2853
2019-05-01T13:23:13.925Z,43.8560
2019-05-01T13:25:17.713Z,43.8941
2019-05-01T13:27:21.568Z,43.6057
2019-05-01T13:29:25.251Z,49.1478
2019-05-01T13:31:29.089Z,43.3341
2019-05-01T13:33:32.874Z,45.9770
2019-05-01T13:35:37.086Z,46.7353
2019-05-01T13:37:40.963Z,45.1667
2019-05-01T13:39:44.602Z,44.9104
2019-05-01T13:41:48.617Z,46.0548
2019-05-01T13:43:52.380Z,43.3753
2019-05-01T13:45:56.348Z,45.4948
2019-05-01T13:47:59.993Z,44.9592
2019-05-01T13:50:03.951Z,40.7904
2019-05-01T13:52:07.673Z,39.9329
2019-05-01T13:54:11.376Z,45.0919
2019-05-01T13:56:15.022Z,45.1698
2019-05-01T13:58:18.726Z,44.0223
2019-05-01T14:00:22.703Z,42.7726
2019-05-01T14:02:26.435Z,46.0365
2019-05-01T14:04:30.295Z,48.6458
2019-05-01T14:06:34.223Z,45.4185
2019-05-01T14:08:38.012Z,47.6417
2019-05-01T14:10:41.907Z,44.3931
2019-05-01T14:12:45.673Z,41.3077
2019-05-01T14:14:49.528Z,41.5091
2019-05-01T14:16:53.474Z,43.5080
2019-05-01T14:18:57.421Z,41.6876
2019-05-01T14:21:01.210Z,44.9287
2019-05-01T14:23:04.886Z,38.9914
2019-05-01T14:25:08.358Z,46.8635
2019-05-01T14:27:12.340Z,44.1276
2019-05-01T14:29:16.064Z,37.1435
2019-05-01T14:31:19.488Z,44.8814
2019-05-01T14:33:23.045Z,40.3311
2019-05-01T14:35:26.945Z,44.5441
2019-05-01T14:37:30.690Z,40.9506
2019-05-01T14:39:34.371Z,42.4292
2019-05-01T14:41:38.305Z,42.4460
2019-05-01T14:43:42.325Z,41.4359
2019-05-01T14:45:45.731Z,42.4826
2019-05-01T14:47:50.195Z,47.0558
2019-05-01T14:49:54.127Z,43.4302
2019-05-01T14:51:57.843Z,45.5268
2019-05-01T14:54:01.568Z,44.4617
2019-05-01T14:56:05.313Z,40.2350
2019-05-01T14:58:09.365Z,42.6429
2019-05-01T15:00:13.267Z,42.8901
2019-05-01T15:02:17.169Z,43.9765
2019-05-01T15:04:20.619Z,41.8189
2019-05-01T15:06:24.369Z,42.6749
2019-05-01T15:08:28.242Z,38.7579
2019-05-01T15:10:32.129Z,41.0956
2019-05-01T15:12:36.239Z,36.3485
2019-05-01T15:14:39.913Z,41.2940
2019-05-01T15:16:43.659Z,40.6516
2019-05-01T15:18:47.538Z,39.5804
2019-05-01T15:20:50.984Z,44.5533
2019-05-01T15:22:54.597Z,42.7039
2019-05-01T15:24:58.409Z,41.3932
2019-05-01T15:27:22.726Z,42.0478
2019-05-01T15:29:27.198Z,42.5528
2019-05-01T15:31:31.557Z,40.2945
2019-05-01T15:33:35.858Z,40.0763
2019-05-01T15:35:40.266Z,45.4810
2019-05-01T15:37:56.033Z,42.9221
2019-05-01T15:39:53.753Z,43.4073
2019-05-01T15:41:58.142Z,46.5431
2019-05-01T15:44:02.294Z,43.2258
2019-05-01T15:46:06.568Z,44.6540
2019-05-01T15:48:10.864Z,47.2862
2019-05-01T15:50:15.282Z,41.2787
2019-05-01T15:52:19.644Z,42.8260
2019-05-01T15:54:23.840Z,40.9232
2019-05-01T15:56:27.999Z,42.6444
2019-05-01T15:58:32.292Z,40.6149
2019-05-01T16:00:36.363Z,45.2033
2019-05-01T16:02:40.765Z,43.9536
2019-05-01T16:04:45.056Z,37.9782
2019-05-01T16:06:49.661Z,44.4190
2019-05-01T16:08:54.039Z,43.7461
2019-05-01T16:10:58.406Z,41.9577
2019-05-01T16:13:02.792Z,43.7781
2019-05-01T16:15:07.128Z,42.7939
2019-05-01T16:17:11.198Z,44.3976
2019-05-01T16:19:15.462Z,37.9248
2019-05-01T16:21:20.011Z,47.5914
2019-05-01T16:23:24.332Z,42.2873
2019-05-01T16:25:28.588Z,42.9603
2019-05-01T16:27:33.298Z,43.5782
2019-05-01T16:29:37.694Z,42.9007
2019-05-01T16:31:42.230Z,44.2679
2019-05-01T16:33:46.358Z,42.0905
2019-05-01T16:35:50.721Z,45.1072
2019-05-01T16:37:55.075Z,43.6088
2019-05-01T16:39:59.447Z,37.7127
2019-05-01T16:42:03.824Z,40.9049
2019-05-01T16:44:08.312Z,42.4247
2019-05-01T16:46:12.609Z,40.9812
2019-05-01T16:48:16.954Z,42.9099
2019-05-01T16:50:21.052Z,42.2553
2019-05-01T16:52:25.420Z,39.6414
2019-05-01T16:54:29.746Z,40.2640
2019-05-01T16:56:34.117Z,38.3963
2019-05-01T16:58:38.381Z,45.1484
2019-05-01T17:00:42.684Z,42.8092
2019-05-01T17:02:47.079Z,40.9049
2019-05-01T17:04:51.681Z,49.8207
2019-05-01T17:06:56.052Z,44.9928
2019-05-01T17:09:00.483Z,44.2496
2019-05-01T17:11:04.586Z,41.5991
2019-05-01T17:13:08.904Z,46.5202
2019-05-01T17:15:13.247Z,44.0681
2019-05-01T17:17:17.771Z,48.1132
2019-05-01T17:19:22.110Z,45.7969
2019-05-01T17:21:26.456Z,44.3244
2019-05-01T17:23:30.520Z,54.1558
2019-05-01T17:25:34.935Z,45.1255
2019-05-01T17:27:39.059Z,49.1630
2019-05-01T17:29:43.393Z,46.9734
2019-05-01T17:31:47.711Z,51.2734
2019-05-01T17:33:55.569Z,52.6329
2019-05-01T17:36:01.532Z,56.9360
2019-05-01T17:38:05.946Z,44.9180
2019-05-01T17:40:10.182Z,59.8733
2019-05-01T17:42:14.571Z,56.1929
2019-05-01T17:44:20.161Z,58.3902
2019-05-01T17:46:27.533Z,56.2676
2019-05-01T17:48:33.614Z,63.1983
2019-05-01T17:50:39.149Z,62.8138
2019-05-01T17:52:43.603Z,63.0289
2019-05-01T17:54:48.055Z,63.3356
2019-05-01T17:56:53.742Z,63.2944
2019-05-01T17:59:00.311Z,66.6255
2019-05-01T18:01:04.389Z,66.9734
2019-05-01T18:03:08.931Z,65.5451
2019-05-01T18:05:12.930Z,68.1972
2019-05-01T18:07:17.231Z,69.4316
2019-05-01T18:09:21.459Z,71.0842
2019-05-01T18:11:25.970Z,72.4269
2019-05-01T18:13:30.460Z,74.4961
2019-05-01T18:15:34.787Z,73.7865
2019-05-01T18:17:39.076Z,75.0637
2019-05-01T18:19:43.306Z,76.6720
2019-05-01T18:21:51.948Z,76.3561
2019-05-01T18:23:56.399Z,76.7315
2019-05-01T18:26:04.748Z,77.9248
2019-05-01T18:28:10.367Z,79.2905
2019-05-01T18:30:15.803Z,79.5544
2019-05-01T18:32:23.873Z,80.5661
2019-05-01T18:34:28.237Z,80.9598
2019-05-01T18:36:32.585Z,80.5676
2019-05-01T18:38:37.008Z,81.9959
2019-05-01T18:40:41.312Z,83.0854
2019-05-01T18:42:45.351Z,82.8519
2019-05-01T18:44:49.635Z,83.0213
2019-05-01T18:46:54.027Z,84.5762
2019-05-01T18:48:58.326Z,84.5762
2019-05-01T18:51:02.533Z,84.6265
2019-05-01T18:53:11.010Z,85.2995
2019-05-01T18:55:15.787Z,85.3834
2019-05-01T18:57:20.015Z,85.5940
2019-05-01T18:59:24.112Z,84.4709
2019-05-01T19:01:28.415Z,86.2669
2019-05-01T19:03:37.069Z,85.5375
2019-05-01T19:05:43.115Z,85.6702
2019-05-01T19:07:51.329Z,86.6819
2019-05-01T19:09:55.678Z,86.6087
2019-05-01T19:12:00.001Z,87.2236
2019-05-01T19:14:04.426Z,87.1672
2019-05-01T19:16:09.941Z,86.7826
2019-05-01T19:18:14.109Z,86.4408
2019-05-01T19:20:17.245Z,85.4841
2019-05-01T19:22:21.444Z,85.7954
2019-05-01T19:24:25.768Z,86.1875
2019-05-01T19:26:30.039Z,85.7069
2019-05-01T19:28:34.177Z,84.9012
2019-05-01T19:30:37.683Z,84.8646
2019-05-01T19:32:41.127Z,85.8854
2019-05-01T19:34:44.646Z,86.3066
2019-05-01T19:36:48.122Z,87.1763
2019-05-01T19:38:51.580Z,87.9133
2019-05-01T19:40:56.052Z,88.5679
2019-05-01T19:43:00.427Z,88.2292
2019-05-01T19:45:03.837Z,87.1351
2019-05-01T19:47:07.968Z,87.0954
2019-05-01T19:49:12.237Z,86.3066
2019-05-01T19:51:19.154Z,85.9190
2019-05-01T19:53:24.539Z,86.7521
2019-05-01T19:55:28.899Z,86.7018
2019-05-01T19:57:33.337Z,86.6285
2019-05-01T19:59:37.476Z,84.8875
2019-05-01T20:01:44.067Z,85.6291
2019-05-01T20:03:49.552Z,84.6464
2019-05-01T20:05:53.831Z,84.9348
2019-05-01T20:07:57.923Z,84.5304
2019-05-01T20:10:02.050Z,85.6565
2019-05-01T20:12:05.650Z,85.7984
2019-05-01T20:14:10.329Z,86.3767
2019-05-01T20:16:14.638Z,85.7313
2019-05-01T20:18:19.007Z,85.8763
2019-05-01T20:20:23.265Z,85.9998
2019-05-01T20:22:26.992Z,86.5370
2019-05-01T20:24:31.459Z,84.8554
2019-05-01T20:26:35.699Z,85.4337
2019-05-01T20:28:40.030Z,85.9998
2019-05-01T20:30:44.521Z,85.9419
2019-05-01T20:32:48.710Z,88.5100
2019-05-01T20:34:53.906Z,89.7597
2019-05-01T20:36:58.380Z,89.7353
2019-05-01T20:39:02.720Z,89.8787
2019-05-01T20:41:10.373Z,90.1534
2019-05-01T20:43:16.570Z,89.8817
2019-05-01T20:45:20.163Z,89.2225
2019-05-01T20:47:34.869Z,89.0944
2019-05-01T20:49:36.410Z,87.9652
2019-05-01T20:51:43.005Z,92.4102
2019-05-01T20:53:47.062Z,92.9580
2019-05-01T20:55:51.322Z,92.8084
2019-05-01T20:57:55.698Z,91.8929
2019-05-01T21:00:00.135Z,92.6619
2019-05-01T21:02:08.096Z,92.8344
2019-05-01T21:04:14.094Z,90.6203
2019-05-01T21:06:18.222Z,89.2332
2019-05-01T21:08:22.529Z,89.8604
2019-05-01T21:10:29.952Z,92.7886
2019-05-01T21:12:35.269Z,92.9030
2019-05-01T21:14:38.703Z,91.4519
2019-05-01T21:16:42.553Z,90.2129
2019-05-01T21:18:47.109Z,93.3471
2019-05-01T21:20:51.566Z,94.1222
2019-05-01T21:22:55.874Z,92.9183
2019-05-01T21:25:00.250Z,92.8038
2019-05-01T21:27:04.244Z,94.4961
2019-05-01T21:29:08.985Z,94.9050
2019-05-01T21:31:13.797Z,93.9925
2019-05-01T21:33:18.271Z,92.9305
2019-05-01T21:35:23.948Z,93.8323
2019-05-01T21:37:28.493Z,94.5525
2019-05-01T21:39:33.446Z,94.3648
2019-05-01T21:41:37.570Z,93.4844
2019-05-01T21:43:42.495Z,92.8130
2019-05-01T21:45:46.907Z,92.5185
2019-05-01T21:47:52.840Z,92.3461
2019-05-01T21:49:57.508Z,92.2805
2019-05-01T21:52:03.628Z,92.4132
2019-05-01T21:54:09.214Z,92.7123
2019-05-01T21:56:13.518Z,92.2957
2019-05-01T21:58:21.025Z,92.4559
2019-05-01T22:00:27.323Z,92.8405
2019-05-01T22:02:31.397Z,93.0190
2019-05-01T22:04:35.685Z,93.6599
2019-05-01T22:06:40.013Z,95.9976
2019-05-01T22:08:44.337Z,96.5621
2019-05-01T22:10:52.005Z,96.6995
2019-05-01T22:12:56.888Z,96.6583
2019-05-01T22:15:01.175Z,96.4965
2019-05-01T22:17:05.608Z,96.5743
2019-05-01T22:19:09.576Z,97.3159
2019-05-01T22:21:13.845Z,97.4121
2019-05-01T22:23:21.930Z,97.8531
2019-05-01T22:25:26.975Z,97.9110
2019-05-01T22:27:31.402Z,97.9843
2019-05-01T22:29:35.727Z,97.8531
2019-05-01T22:31:39.567Z,97.8622
2019-05-01T22:33:43.890Z,97.7066
2019-05-01T22:35:48.288Z,97.8103
2019-05-01T22:37:52.385Z,97.5357
2019-05-01T22:39:56.722Z,97.5357
2019-05-01T22:42:01.035Z,97.4212
2019-05-01T22:44:05.319Z,97.0382
2019-05-01T22:46:09.671Z,97.2244
2019-05-01T22:48:13.975Z,96.6751
2019-05-01T22:50:18.443Z,96.5286
2019-05-01T22:52:22.589Z,97.0275
2019-05-01T22:54:26.951Z,97.1298
2019-05-01T22:56:32.128Z,97.2259
2019-05-01T22:58:36.494Z,97.6287
2019-05-01T23:00:40.757Z,97.3800
2019-05-01T23:02:45.075Z,96.9833
2019-05-01T23:04:52.089Z,97.1145
2019-05-01T23:06:56.595Z,96.7941
2019-05-01T23:09:00.038Z,97.2793
2019-05-01T23:11:03.164Z,97.2976
2019-05-01T23:13:07.251Z,97.6822
2019-05-01T23:15:11.785Z,97.6684
2019-05-01T23:17:16.084Z,98.2101
2019-05-01T23:19:22.760Z,98.4192
2019-05-01T23:21:29.762Z,98.6908
2019-05-01T23:23:34.044Z,98.7945
2019-05-01T23:25:41.236Z,98.8327
2019-05-01T23:27:46.730Z,98.7671
2019-05-01T23:29:50.990Z,98.7671
2019-05-01T23:31:55.207Z,98.8037
2019-05-01T23:33:59.569Z,98.6984
2019-05-01T23:36:03.856Z,98.6206
2019-05-01T23:38:08.255Z,98.6801
2019-05-01T23:40:15.586Z,98.6755
2019-05-01T23:42:21.227Z,98.6816
2019-05-01T23:44:25.476Z,98.7503
2019-05-01T23:46:29.137Z,99.0143
2019-05-01T23:48:33.502Z,99.0692
2019-05-01T23:50:37.555Z,98.8373
2019-05-01T23:52:40.715Z,98.8129
2019-05-01T23:54:44.173Z,98.9014
2019-05-01T23:56:48.634Z,98.4802
2019-05-01T23:58:51.755Z,98.5245
